Swain, NY (14884)

10:04 PM EDT on August 31, 2016 (GMT -0400)
Swain | | Change Station

Elev 1706 ft 42.48 °N, 77.86 °W | Updated 1 second ago

Mostly Cloudy
Mostly Cloudy
65.3 °F
Feels Like 65.3 °F
N
0.0
Wind Variable Wind from West
Gusts 2.0 mph

Today
High -- | Low -- °F
--% Chance of Precip.
Yesterday
High -- | Low -- °F
Precip. -- in
Pressure 29.94 in
Visibility 10.0 miles
Clouds Scattered Clouds 2600 ft
Scattered Clouds 3100 ft
Mostly Cloudy 4200 ft
Dew Point 65 °F
Humidity 99%
Rainfall 0.13 in
Snow Depth Not available.
6:36 AM 7:46 PM
Waning Crescent, 0% visible
METAR KDSV 010154Z AUTO 00000KT 10SM SCT026 SCT031 BKN042 21/18 A2993 RMK AO2 SLP139 T02110183
Pressure 29.94 in
Visibility 10.0 miles
Clouds Scattered Clouds 2600 ft
Scattered Clouds 3100 ft
Mostly Cloudy 4200 ft
Dew Point 65 °F
Humidity 99%
Rainfall 0.13 in
Snow Depth Not available.
6:36 AM 7:46 PM
Waning Crescent, 0% visible
METAR KDSV 010154Z AUTO 00000KT 10SM SCT026 SCT031 BKN042 21/18 A2993 RMK AO2 SLP139 T02110183

10-Day Weather Forecast

Almanac

Astronomy

Aug. 31, 2016 Rise Set
Actual Time
Civil Twilight
Nautical Twilight
Astronomical Twilight
Moon
Length of Visible Light
Length of Day
Tomorrow will be .
, % of the Moon is Illuminated

Today's Extremes

State Highs State Lows

Community

WunderPhotos

Upload Photos

1,936,268 photos uploaded!

WunderBlog® & News

Nearby

Air Quality

  Air Quality AQ Index Pollutant
Not available.

Snow Depth

Station Depth Elevation

Earthquake Activity

City Distance Mag. Time & Date
Minimum magnitude displayed is 2.5.

Coastal Water Temperatures

Place Temperature

Stations

Nearby Weather Stations

Station Location Temp. Windchill Dew Point Humidity Wind Precip. Elev Updated Type
                   

Watches & Warnings

There are currently no watches in effect.